createdAt,value
2023-01-17T00:00:30.890Z,18.72
2023-01-17T00:02:57.673Z,18.54
2023-01-17T00:05:42.893Z,19.89
2023-01-17T00:08:28.298Z,20.57
2023-01-17T00:10:55.078Z,20.89
2023-01-17T00:13:21.950Z,21.09
2023-01-17T00:15:48.752Z,21.22
2023-01-17T00:18:16.946Z,21.41
2023-01-17T00:21:02.565Z,21.43
2023-01-17T00:23:48.014Z,21.55
2023-01-17T00:26:14.777Z,21.56
2023-01-17T00:28:41.473Z,21.48
2023-01-17T00:31:08.218Z,19.03
2023-01-17T00:33:34.994Z,18.47
2023-01-17T00:36:01.709Z,19.68
2023-01-17T00:38:28.437Z,20.37
2023-01-17T00:40:55.162Z,20.78
2023-01-17T00:43:40.369Z,20.95
2023-01-17T00:46:25.853Z,21.10
2023-01-17T00:49:11.092Z,21.26
2023-01-17T00:51:56.450Z,21.38
2023-01-17T00:54:41.727Z,21.52
2023-01-17T00:57:26.991Z,21.63
2023-01-17T01:00:12.385Z,21.70
2023-01-17T01:02:57.747Z,21.22
2023-01-17T01:05:43.176Z,21.03
2023-01-17T01:08:28.720Z,21.39
2023-01-17T01:11:14.088Z,21.63
2023-01-17T01:13:59.542Z,21.16
2023-01-17T01:16:44.796Z,18.86
2023-01-17T01:19:30.334Z,18.97
2023-01-17T01:22:15.648Z,20.29
2023-01-17T01:25:00.959Z,20.73
2023-01-17T01:27:46.315Z,21.05
2023-01-17T01:30:31.648Z,21.22
2023-01-17T01:33:17.014Z,21.44
2023-01-17T01:35:43.836Z,21.48
2023-01-17T01:38:10.626Z,21.55
2023-01-17T01:40:37.355Z,21.74
2023-01-17T01:43:05.889Z,21.76
2023-01-17T01:45:32.673Z,19.75
2023-01-17T01:47:59.471Z,18.27
2023-01-17T01:50:26.227Z,19.13
2023-01-17T01:52:52.974Z,20.17
2023-01-17T01:55:19.746Z,20.61
2023-01-17T01:57:46.758Z,20.88
2023-01-17T02:00:14.473Z,21.03
2023-01-17T02:02:41.211Z,21.15
2023-01-17T02:05:07.960Z,21.31
2023-01-17T02:07:34.722Z,21.39
2023-01-17T02:10:01.455Z,21.46
2023-01-17T02:12:28.303Z,21.58
2023-01-17T02:14:55.422Z,21.62
2023-01-17T02:17:22.153Z,19.38
2023-01-17T02:19:48.907Z,17.96
2023-01-17T02:22:15.634Z,18.74
2023-01-17T02:24:42.382Z,19.96
2023-01-17T02:27:09.130Z,20.35
2023-01-17T02:29:35.864Z,20.63
2023-01-17T02:32:03.149Z,20.86
2023-01-17T02:34:29.924Z,20.99
2023-01-17T02:36:57.607Z,21.09
2023-01-17T02:39:24.395Z,21.21
2023-01-17T02:41:51.140Z,21.32
2023-01-17T02:44:17.885Z,21.45
2023-01-17T02:46:44.755Z,21.58
2023-01-17T02:49:11.623Z,21.65
2023-01-17T02:51:38.858Z,21.65
2023-01-17T02:54:05.584Z,21.30
2023-01-17T02:56:32.694Z,18.82
2023-01-17T02:58:59.523Z,18.15
2023-01-17T03:01:26.402Z,19.73
2023-01-17T03:03:53.193Z,20.31
2023-01-17T03:06:19.966Z,20.57
2023-01-17T03:08:46.726Z,20.86
2023-01-17T03:11:13.523Z,20.97
2023-01-17T03:13:41.083Z,21.14
2023-01-17T03:16:07.918Z,21.29
2023-01-17T03:18:34.814Z,21.34
2023-01-17T03:21:01.614Z,21.46
2023-01-17T03:23:28.475Z,21.56
2023-01-17T03:25:55.277Z,21.63
2023-01-17T03:28:22.032Z,21.78
2023-01-17T03:30:48.854Z,20.72
2023-01-17T03:33:15.639Z,18.32
2023-01-17T03:35:42.361Z,17.81
2023-01-17T03:38:09.094Z,19.58
2023-01-17T03:40:35.825Z,20.20
2023-01-17T03:43:02.545Z,20.48
2023-01-17T03:45:29.323Z,20.71
2023-01-17T03:47:57.647Z,20.85
2023-01-17T03:50:24.379Z,21.04
2023-01-17T03:52:51.220Z,21.17
2023-01-17T03:55:17.965Z,21.29
2023-01-17T03:57:44.693Z,21.39
2023-01-17T04:00:11.421Z,21.47
2023-01-17T04:02:38.265Z,21.60
2023-01-17T04:05:05.149Z,21.65
2023-01-17T04:07:31.874Z,20.19
2023-01-17T04:09:58.622Z,18.15
2023-01-17T04:12:25.437Z,17.68
2023-01-17T04:14:52.199Z,19.27
2023-01-17T04:17:18.959Z,19.99
2023-01-17T04:19:45.693Z,20.34
2023-01-17T04:22:12.424Z,20.58
2023-01-17T04:24:39.245Z,20.78
2023-01-17T04:27:06.103Z,20.91
2023-01-17T04:29:32.934Z,21.08
2023-01-17T04:31:59.764Z,21.20
2023-01-17T04:34:26.818Z,21.26
2023-01-17T04:36:53.567Z,21.37
2023-01-17T04:39:20.347Z,21.42
2023-01-17T04:41:47.148Z,21.52
2023-01-17T04:44:13.927Z,21.71
2023-01-17T04:46:40.683Z,21.68
2023-01-17T04:49:07.405Z,20.22
2023-01-17T04:51:34.185Z,18.20
2023-01-17T04:54:00.947Z,17.73
2023-01-17T04:56:27.750Z,19.46
2023-01-17T04:58:54.520Z,20.06
2023-01-17T05:01:21.426Z,20.39
2023-01-17T05:03:48.213Z,20.68
2023-01-17T05:06:14.960Z,20.82
2023-01-17T05:08:41.714Z,20.93
2023-01-17T05:11:08.443Z,21.13
2023-01-17T05:13:35.172Z,21.25
2023-01-17T05:16:02.019Z,21.27
2023-01-17T05:18:28.861Z,21.43
2023-01-17T05:20:55.596Z,21.48
2023-01-17T05:23:22.333Z,21.49
2023-01-17T05:25:49.057Z,21.59
2023-01-17T05:28:15.778Z,21.37
2023-01-17T05:30:42.590Z,19.03
2023-01-17T05:33:10.153Z,18.44
2023-01-17T05:35:36.983Z,19.82
2023-01-17T05:38:03.812Z,20.33
2023-01-17T05:40:30.873Z,20.63
2023-01-17T05:42:57.685Z,20.87
2023-01-17T05:45:24.510Z,20.97
2023-01-17T05:47:51.226Z,21.18
2023-01-17T05:50:18.125Z,21.23
2023-01-17T05:52:44.990Z,21.43
2023-01-17T05:55:11.728Z,21.46
2023-01-17T05:57:38.486Z,21.55
2023-01-17T06:00:05.232Z,21.64
2023-01-17T06:02:31.977Z,21.37
2023-01-17T06:04:58.724Z,18.58
2023-01-17T06:07:25.522Z,18.09
2023-01-17T06:09:52.250Z,19.17
2023-01-17T06:12:19.769Z,20.07
2023-01-17T06:14:47.773Z,20.38
2023-01-17T06:17:14.517Z,20.62
2023-01-17T06:19:41.252Z,20.82
2023-01-17T06:22:08.200Z,20.97
2023-01-17T06:24:34.986Z,21.14
2023-01-17T06:27:01.770Z,21.22
2023-01-17T06:29:28.506Z,21.29
2023-01-17T06:31:55.265Z,21.45
2023-01-17T06:34:22.034Z,21.55
2023-01-17T06:36:48.811Z,21.62
2023-01-17T06:39:15.559Z,21.65
2023-01-17T06:41:42.906Z,21.53
2023-01-17T06:44:09.762Z,18.76
2023-01-17T06:46:36.591Z,18.03
2023-01-17T06:49:03.337Z,18.94
2023-01-17T06:51:30.120Z,19.97
2023-01-17T06:53:56.847Z,20.41
2023-01-17T06:56:23.676Z,20.65
2023-01-17T06:58:50.595Z,20.81
2023-01-17T07:01:17.458Z,21.03
2023-01-17T07:03:44.384Z,21.10
2023-01-17T07:06:11.479Z,21.15
2023-01-17T07:08:38.303Z,21.34
2023-01-17T07:11:05.102Z,21.39
2023-01-17T07:13:31.872Z,21.51
2023-01-17T07:15:58.661Z,21.58
2023-01-17T07:18:25.402Z,21.46
2023-01-17T07:20:52.171Z,19.07
2023-01-17T07:23:19.275Z,17.60
2023-01-17T07:25:46.006Z,18.28
2023-01-17T07:28:12.746Z,19.70
2023-01-17T07:30:39.487Z,20.22
2023-01-17T07:33:06.313Z,20.49
2023-01-17T07:35:33.099Z,20.71
2023-01-17T07:38:00.013Z,20.79
2023-01-17T07:40:27.094Z,20.94
2023-01-17T07:42:54.175Z,21.02
2023-01-17T07:45:21.742Z,21.18
2023-01-17T07:47:49.887Z,21.29
2023-01-17T07:50:16.718Z,21.40
2023-01-17T07:52:43.457Z,21.46
2023-01-17T07:55:10.369Z,21.50
2023-01-17T07:57:37.138Z,21.62
2023-01-17T08:00:03.888Z,20.86
2023-01-17T08:02:30.691Z,18.80
2023-01-17T08:04:57.444Z,18.04
2023-01-17T08:07:24.184Z,18.88
2023-01-17T08:09:51.760Z,19.73
2023-01-17T08:12:18.519Z,20.36
2023-01-17T08:14:45.254Z,20.60
2023-01-17T08:17:12.010Z,20.82
2023-01-17T08:19:38.747Z,20.94
2023-01-17T08:22:05.513Z,21.06
2023-01-17T08:24:32.259Z,21.16
2023-01-17T08:26:59.102Z,21.28
2023-01-17T08:29:25.900Z,21.32
2023-01-17T08:31:52.679Z,21.48
2023-01-17T08:34:19.538Z,21.52
2023-01-17T08:36:47.780Z,21.10
2023-01-17T08:39:14.545Z,18.94
2023-01-17T08:41:41.375Z,17.64
2023-01-17T08:44:08.106Z,18.79
2023-01-17T08:46:34.906Z,20.09
2023-01-17T08:49:02.635Z,20.31
2023-01-17T08:51:29.766Z,20.59
2023-01-17T08:53:56.516Z,20.77
2023-01-17T08:56:27.217Z,20.93
2023-01-17T08:58:53.985Z,21.11
2023-01-17T09:01:20.818Z,21.16
2023-01-17T09:03:47.604Z,21.22
2023-01-17T09:06:14.330Z,21.40
2023-01-17T09:08:41.069Z,21.46
2023-01-17T09:11:07.864Z,21.47
2023-01-17T09:13:34.604Z,21.61
2023-01-17T09:16:01.332Z,21.74
2023-01-17T09:18:28.209Z,19.93
2023-01-17T09:20:55.229Z,18.24
2023-01-17T09:23:22.162Z,17.79
2023-01-17T09:25:48.938Z,18.96
2023-01-17T09:28:15.717Z,19.83
2023-01-17T09:30:42.493Z,20.38
2023-01-17T09:33:09.303Z,20.51
2023-01-17T09:35:36.041Z,20.68
2023-01-17T09:38:02.758Z,20.88
2023-01-17T09:40:29.591Z,21.14
2023-01-17T09:42:57.940Z,21.14
2023-01-17T09:45:25.417Z,21.16
2023-01-17T09:47:52.271Z,21.29
2023-01-17T09:50:19.025Z,21.46
2023-01-17T09:52:45.964Z,21.48
2023-01-17T09:55:12.751Z,21.54
2023-01-17T09:57:39.550Z,21.62
2023-01-17T10:00:06.406Z,21.67
2023-01-17T10:02:33.261Z,19.63
2023-01-17T10:05:00.140Z,18.12
2023-01-17T10:07:26.986Z,18.29
2023-01-17T10:09:53.766Z,19.69
2023-01-17T10:12:20.497Z,20.25
2023-01-17T10:14:47.279Z,20.54
2023-01-17T10:17:15.985Z,20.77
2023-01-17T10:19:42.718Z,20.97
2023-01-17T10:22:10.142Z,21.13
2023-01-17T10:24:37.029Z,21.18
2023-01-17T10:27:03.806Z,21.31
2023-01-17T10:29:30.674Z,21.38
2023-01-17T10:31:57.563Z,21.48
2023-01-17T10:34:24.288Z,21.52
2023-01-17T10:36:51.067Z,21.60
2023-01-17T10:39:17.818Z,21.50
2023-01-17T10:41:44.617Z,19.26
2023-01-17T10:44:11.401Z,17.75
2023-01-17T10:46:38.170Z,18.56
2023-01-17T10:49:05.007Z,19.70
2023-01-17T10:51:31.877Z,20.17
2023-01-17T10:54:00.602Z,20.51
2023-01-17T10:56:28.554Z,20.64
2023-01-17T10:58:55.305Z,20.86
2023-01-17T11:01:22.318Z,21.03
2023-01-17T11:03:49.213Z,21.14
2023-01-17T11:06:16.142Z,21.21
2023-01-17T11:08:42.908Z,21.27
2023-01-17T11:11:09.658Z,21.39
2023-01-17T11:13:36.411Z,21.42
2023-01-17T11:16:03.304Z,21.63
2023-01-17T11:18:30.088Z,21.64
2023-01-17T11:20:56.832Z,20.36
2023-01-17T11:23:23.588Z,18.63
2023-01-17T11:25:50.432Z,17.62
2023-01-17T11:28:17.180Z,19.16
2023-01-17T11:30:44.030Z,20.04
2023-01-17T11:33:10.789Z,20.50
2023-01-17T11:35:37.527Z,20.71
2023-01-17T11:38:04.649Z,20.84
2023-01-17T11:40:31.480Z,20.97
2023-01-17T11:42:58.239Z,21.08
2023-01-17T11:45:25.120Z,21.19
2023-01-17T11:47:51.866Z,21.28
2023-01-17T11:50:18.608Z,21.33
2023-01-17T11:52:45.410Z,21.49
2023-01-17T11:55:13.078Z,21.62
2023-01-17T11:57:39.809Z,21.60
2023-01-17T12:00:07.427Z,21.57
2023-01-17T12:02:34.166Z,19.12
2023-01-17T12:05:00.961Z,17.61
2023-01-17T12:07:27.785Z,18.29
2023-01-17T12:09:54.707Z,19.56
2023-01-17T12:12:40.243Z,20.12
2023-01-17T12:15:07.288Z,20.45
2023-01-17T12:17:34.061Z,20.68
2023-01-17T12:20:01.130Z,20.81
2023-01-17T12:22:28.020Z,20.94
2023-01-17T12:24:54.791Z,21.13
2023-01-17T12:27:22.793Z,21.19
2023-01-17T12:29:49.598Z,21.43
2023-01-17T12:32:16.347Z,21.40
2023-01-17T12:34:43.087Z,21.51
2023-01-17T12:37:09.867Z,21.53
2023-01-17T12:39:36.637Z,21.66
2023-01-17T12:42:03.431Z,21.27
2023-01-17T12:44:30.270Z,19.10
2023-01-17T12:46:57.147Z,18.12
2023-01-17T12:49:23.973Z,18.94
2023-01-17T12:51:50.910Z,20.19
2023-01-17T12:54:17.676Z,20.49
2023-01-17T12:56:44.510Z,20.70
2023-01-17T12:59:11.258Z,20.84
2023-01-17T13:01:42.890Z,21.00
2023-01-17T13:04:09.729Z,21.11
2023-01-17T13:06:36.491Z,21.23
2023-01-17T13:09:03.314Z,21.28
2023-01-17T13:11:30.268Z,21.33
2023-01-17T13:14:00.057Z,21.47
2023-01-17T13:16:26.844Z,21.54
2023-01-17T13:18:53.696Z,21.61
2023-01-17T13:21:20.582Z,21.65
2023-01-17T13:23:47.330Z,19.50
2023-01-17T13:26:14.237Z,18.12
2023-01-17T13:28:40.987Z,18.12
2023-01-17T13:31:07.954Z,19.60
2023-01-17T13:33:34.803Z,20.23
2023-01-17T13:36:01.557Z,20.53
2023-01-17T13:38:28.571Z,20.87
2023-01-17T13:40:55.482Z,20.90
2023-01-17T13:43:22.853Z,21.06
2023-01-17T13:45:50.264Z,21.15
2023-01-17T13:48:17.976Z,21.28
2023-01-17T13:50:44.729Z,21.32
2023-01-17T13:53:11.538Z,21.41
2023-01-17T13:55:38.326Z,21.56
2023-01-17T13:58:05.081Z,21.60
2023-01-17T14:00:31.864Z,21.64
2023-01-17T14:02:58.629Z,21.13
2023-01-17T14:05:25.503Z,18.74
2023-01-17T14:07:52.241Z,17.57
2023-01-17T14:10:18.982Z,18.36
2023-01-17T14:12:45.716Z,19.76
2023-01-17T14:15:12.452Z,20.25
2023-01-17T14:17:39.241Z,20.46
2023-01-17T14:20:05.979Z,20.63
2023-01-17T14:22:32.784Z,20.80
2023-01-17T14:24:59.528Z,20.98
2023-01-17T14:27:26.299Z,21.04
2023-01-17T14:29:53.257Z,21.16
2023-01-17T14:32:20.207Z,21.34
2023-01-17T14:34:46.936Z,21.34
2023-01-17T14:37:13.780Z,21.43
2023-01-17T14:39:40.551Z,21.50
2023-01-17T14:42:07.301Z,21.57
2023-01-17T14:44:34.393Z,21.68
2023-01-17T14:47:01.183Z,19.86
2023-01-17T14:49:27.947Z,18.55
2023-01-17T14:51:54.675Z,18.23
2023-01-17T14:54:21.474Z,19.39
2023-01-17T14:56:48.383Z,20.11
2023-01-17T14:59:16.820Z,20.55
2023-01-17T15:01:50.051Z,20.71
2023-01-17T15:04:22.033Z,20.84
2023-01-17T15:06:48.790Z,21.02
2023-01-17T15:09:15.680Z,21.08
2023-01-17T15:11:42.473Z,21.18
2023-01-17T15:14:09.265Z,21.26
2023-01-17T15:16:36.189Z,21.35
2023-01-17T15:19:02.991Z,21.50
2023-01-17T15:21:29.894Z,21.62
2023-01-17T15:23:56.721Z,21.62
2023-01-17T15:26:23.523Z,21.66
2023-01-17T15:28:50.366Z,19.47
2023-01-17T15:31:17.119Z,18.33
2023-01-17T15:33:43.961Z,18.18
2023-01-17T15:36:11.147Z,19.63
2023-01-17T15:38:39.233Z,20.23
2023-01-17T15:41:06.206Z,20.51
2023-01-17T15:43:35.754Z,20.68
2023-01-17T15:46:03.452Z,20.92
2023-01-17T15:48:30.310Z,20.94
2023-01-17T15:50:57.613Z,21.09
2023-01-17T15:53:24.388Z,21.17
2023-01-17T15:55:51.152Z,21.25
2023-01-17T15:58:18.025Z,21.38
2023-01-17T16:00:46.819Z,21.51
2023-01-17T16:03:13.681Z,21.58
2023-01-17T16:05:43.394Z,21.65
2023-01-17T16:08:10.237Z,21.36
2023-01-17T16:10:37.688Z,19.12
2023-01-17T16:13:04.440Z,17.94
2023-01-17T16:15:31.253Z,18.64
2023-01-17T16:17:58.082Z,19.82
2023-01-17T16:20:25.205Z,20.25
2023-01-17T16:22:52.392Z,20.54
2023-01-17T16:25:19.322Z,20.70
2023-01-17T16:27:46.073Z,20.86
2023-01-17T16:30:15.052Z,21.03
2023-01-17T16:32:42.347Z,21.08
2023-01-17T16:35:09.107Z,21.23
2023-01-17T16:37:35.831Z,21.30
2023-01-17T16:40:02.572Z,21.35
2023-01-17T16:42:29.417Z,21.41
2023-01-17T16:44:56.298Z,21.55
2023-01-17T16:47:23.139Z,21.63
2023-01-17T16:49:50.056Z,21.68
2023-01-17T16:52:16.823Z,19.59
2023-01-17T16:54:43.561Z,18.29
2023-01-17T16:57:10.470Z,18.38
2023-01-17T16:59:50.111Z,19.67
2023-01-17T17:02:18.535Z,20.42
2023-01-17T17:04:45.325Z,20.67
2023-01-17T17:07:12.117Z,20.86
2023-01-17T17:09:38.894Z,20.93
2023-01-17T17:12:05.729Z,21.05
2023-01-17T17:14:32.555Z,21.13
2023-01-17T17:17:02.046Z,21.28
2023-01-17T17:19:28.820Z,21.36
2023-01-17T17:21:55.554Z,21.40
2023-01-17T17:24:22.296Z,21.51
2023-01-17T17:26:49.034Z,21.61
2023-01-17T17:29:15.920Z,21.66
2023-01-17T17:31:42.670Z,19.65
2023-01-17T17:34:09.418Z,18.31
2023-01-17T17:36:36.335Z,18.25
2023-01-17T17:39:03.550Z,19.33
2023-01-17T17:41:30.382Z,20.16
2023-01-17T17:43:57.206Z,20.57
2023-01-17T17:46:24.059Z,20.67
2023-01-17T17:48:50.820Z,20.82
2023-01-17T17:51:17.547Z,20.94
2023-01-17T17:53:44.291Z,21.07
2023-01-17T17:56:11.035Z,21.17
2023-01-17T17:58:37.850Z,21.24
2023-01-17T18:01:04.663Z,21.38
2023-01-17T18:03:31.460Z,21.48
2023-01-17T18:05:58.201Z,21.58
2023-01-17T18:08:24.947Z,21.61
2023-01-17T18:10:51.716Z,21.68
2023-01-17T18:13:18.602Z,19.94
2023-01-17T18:15:45.370Z,18.18
2023-01-17T18:18:12.099Z,18.03
2023-01-17T18:20:40.026Z,19.43
2023-01-17T18:23:06.760Z,20.06
2023-01-17T18:25:35.593Z,20.39
2023-01-17T18:28:03.126Z,20.60
2023-01-17T18:30:34.836Z,20.79
2023-01-17T18:33:01.714Z,20.95
2023-01-17T18:35:28.503Z,21.14
2023-01-17T18:37:55.479Z,21.23
2023-01-17T18:40:22.334Z,21.30
2023-01-17T18:42:49.088Z,21.44
2023-01-17T18:45:15.920Z,21.55
2023-01-17T18:47:42.646Z,21.54
2023-01-17T18:50:09.398Z,21.66
2023-01-17T18:52:36.956Z,20.87
2023-01-17T18:55:03.698Z,19.04
2023-01-17T18:57:30.509Z,18.06
2023-01-17T18:59:57.487Z,19.04
2023-01-17T19:02:24.288Z,19.88
2023-01-17T19:04:51.020Z,20.38
2023-01-17T19:07:17.848Z,20.69
2023-01-17T19:09:44.664Z,20.85
2023-01-17T19:12:11.397Z,20.86
2023-01-17T19:14:38.190Z,21.08
2023-01-17T19:17:05.123Z,21.19
2023-01-17T19:19:31.869Z,21.27
2023-01-17T19:21:58.622Z,21.34
2023-01-17T19:24:25.631Z,21.42
2023-01-17T19:26:53.197Z,21.53
2023-01-17T19:29:20.078Z,21.64
2023-01-17T19:31:46.881Z,20.72
2023-01-17T19:34:14.560Z,18.50
2023-01-17T19:36:41.359Z,17.43
2023-01-17T19:39:09.282Z,19.21
2023-01-17T19:41:36.096Z,19.89
2023-01-17T19:44:03.060Z,20.24
2023-01-17T19:46:29.807Z,20.62
2023-01-17T19:48:56.567Z,20.73
2023-01-17T19:51:23.323Z,20.85
2023-01-17T19:53:50.062Z,21.01
2023-01-17T19:56:16.797Z,21.12
2023-01-17T19:58:43.548Z,21.21
2023-01-17T20:01:10.490Z,21.37
2023-01-17T20:03:37.555Z,21.43
2023-01-17T20:06:04.350Z,21.50
2023-01-17T20:08:31.174Z,21.61
2023-01-17T20:10:57.909Z,21.49
2023-01-17T20:13:25.132Z,19.26
2023-01-17T20:15:51.880Z,17.69
2023-01-17T20:18:19.285Z,18.63
2023-01-17T20:20:56.929Z,19.74
2023-01-17T20:23:24.333Z,20.23
2023-01-17T20:25:51.108Z,20.53
2023-01-17T20:28:17.859Z,20.68
2023-01-17T20:30:45.454Z,20.88
2023-01-17T20:33:14.866Z,21.04
2023-01-17T20:35:41.605Z,21.18
2023-01-17T20:38:10.303Z,21.23
2023-01-17T20:40:37.110Z,21.31
2023-01-17T20:43:03.922Z,21.39
2023-01-17T20:45:30.761Z,21.49
2023-01-17T20:47:57.975Z,21.56
2023-01-17T20:50:24.938Z,21.64
2023-01-17T20:52:51.681Z,19.88
2023-01-17T20:55:18.435Z,18.18
2023-01-17T20:57:45.179Z,18.01
2023-01-17T21:00:12.134Z,19.00
2023-01-17T21:02:38.923Z,19.83
2023-01-17T21:05:05.740Z,20.22
2023-01-17T21:07:32.485Z,20.59
2023-01-17T21:09:59.240Z,20.64
2023-01-17T21:12:25.960Z,20.89
2023-01-17T21:14:53.537Z,20.98
2023-01-17T21:17:20.306Z,21.11
2023-01-17T21:19:47.036Z,21.19
2023-01-17T21:22:16.525Z,21.24
2023-01-17T21:24:43.267Z,21.29
2023-01-17T21:27:12.249Z,21.40
2023-01-17T21:29:39.074Z,21.40
2023-01-17T21:32:08.620Z,21.48
2023-01-17T21:34:35.399Z,21.56
2023-01-17T21:37:02.223Z,21.13
2023-01-17T21:39:29.240Z,18.53
2023-01-17T21:41:55.973Z,17.57
2023-01-17T21:44:22.813Z,18.92
2023-01-17T21:46:53.467Z,19.88
2023-01-17T21:49:21.916Z,20.22
2023-01-17T21:51:54.606Z,20.45
2023-01-17T21:54:41.332Z,20.70
2023-01-17T21:57:27.187Z,20.95
2023-01-17T21:59:53.933Z,21.05
2023-01-17T22:02:20.750Z,21.17
2023-01-17T22:04:47.555Z,21.28
2023-01-17T22:07:14.355Z,21.31
2023-01-17T22:09:41.101Z,21.42
2023-01-17T22:12:07.843Z,21.55
2023-01-17T22:14:34.575Z,21.55
2023-01-17T22:17:01.323Z,21.61
2023-01-17T22:19:28.125Z,21.67
2023-01-17T22:21:54.899Z,19.93
2023-01-17T22:24:22.258Z,18.43
2023-01-17T22:26:49.002Z,18.42
2023-01-17T22:29:18.640Z,19.36
2023-01-17T22:31:45.451Z,20.14
2023-01-17T22:34:13.438Z,20.45
2023-01-17T22:36:40.197Z,20.68
2023-01-17T22:39:06.992Z,20.90
2023-01-17T22:41:35.089Z,20.99
2023-01-17T22:44:08.368Z,21.09
2023-01-17T22:46:36.971Z,21.17
2023-01-17T22:49:03.963Z,21.31
2023-01-17T22:51:30.749Z,21.33
2023-01-17T22:53:57.551Z,21.44
2023-01-17T22:56:24.311Z,21.49
2023-01-17T22:58:51.103Z,21.62
2023-01-17T23:01:17.908Z,19.84
2023-01-17T23:03:44.722Z,18.55
2023-01-17T23:06:11.589Z,18.40
2023-01-17T23:08:38.392Z,19.36
2023-01-17T23:11:23.942Z,20.09
2023-01-17T23:13:50.690Z,20.57
2023-01-17T23:16:36.043Z,20.75
2023-01-17T23:19:21.278Z,20.92
2023-01-17T23:22:06.617Z,21.01
2023-01-17T23:24:33.370Z,21.20
2023-01-17T23:27:18.767Z,21.26
2023-01-17T23:29:45.586Z,21.36
2023-01-17T23:32:12.341Z,21.43
2023-01-17T23:34:39.071Z,21.54
2023-01-17T23:37:05.828Z,21.66
2023-01-17T23:39:32.582Z,21.65
2023-01-17T23:42:18.105Z,20.92
2023-01-17T23:44:44.839Z,18.91
2023-01-17T23:47:11.648Z,18.09
2023-01-17T23:49:38.380Z,19.04
2023-01-17T23:52:05.199Z,19.84
2023-01-17T23:54:31.976Z,20.36
2023-01-17T23:56:58.752Z,20.59
2023-01-17T23:59:25.524Z,20.86
